createdAt,value
2023-05-08T00:00:33.929Z,3.78
2023-05-08T00:02:35.686Z,3.95
2023-05-08T00:04:37.397Z,5.53
2023-05-08T00:06:41.367Z,3.45
2023-05-08T00:08:43.040Z,4.28
2023-05-08T00:10:47.648Z,4.13
2023-05-08T00:12:49.344Z,3.50
2023-05-08T00:14:50.911Z,3.75
2023-05-08T00:16:52.590Z,3.47
2023-05-08T00:18:54.951Z,3.92
2023-05-08T00:20:56.391Z,3.83
2023-05-08T00:22:59.869Z,3.90
2023-05-08T00:25:01.692Z,3.60
2023-05-08T00:27:08.039Z,3.97
2023-05-08T00:29:09.752Z,3.85
2023-05-08T00:31:11.960Z,4.25
2023-05-08T00:33:13.819Z,3.50
2023-05-08T00:35:18.018Z,3.88
2023-05-08T00:37:19.573Z,3.65
2023-05-08T00:39:23.255Z,3.80
2023-05-08T00:41:24.885Z,4.65
2023-05-08T00:43:28.368Z,4.00
2023-05-08T00:45:36.524Z,3.42
2023-05-08T00:47:38.911Z,3.45
2023-05-08T00:49:40.967Z,3.83
2023-05-08T00:51:45.020Z,4.53
2023-05-08T00:53:46.691Z,3.83
2023-05-08T00:55:49.296Z,3.80
2023-05-08T00:57:52.352Z,3.28
2023-05-08T00:59:55.583Z,3.50
2023-05-08T01:01:57.124Z,3.45
2023-05-08T01:03:58.748Z,3.65
2023-05-08T01:06:00.598Z,3.67
2023-05-08T01:08:02.650Z,3.40
2023-05-08T01:10:04.814Z,3.35
2023-05-08T01:12:20.602Z,3.92
2023-05-08T01:15:00.579Z,3.22
2023-05-08T01:17:12.019Z,5.03
2023-05-08T01:19:35.341Z,3.35
2023-05-08T01:21:58.516Z,3.35
2023-05-08T01:24:26.755Z,3.58
2023-05-08T01:27:06.493Z,4.75
2023-05-08T01:29:13.662Z,4.72
2023-05-08T01:31:32.202Z,4.43
2023-05-08T01:33:38.304Z,4.05
2023-05-08T01:35:50.701Z,3.75
2023-05-08T01:38:06.638Z,3.75
2023-05-08T01:40:17.426Z,3.83
2023-05-08T01:42:30.604Z,5.15
2023-05-08T01:44:37.666Z,4.00
2023-05-08T01:46:39.565Z,5.28
2023-05-08T01:48:49.407Z,3.78
2023-05-08T01:50:58.238Z,4.03
2023-05-08T01:53:10.561Z,3.80
2023-05-08T01:55:20.498Z,3.78
2023-05-08T01:57:30.138Z,4.35
2023-05-08T01:59:33.728Z,3.55
2023-05-08T02:01:35.793Z,3.85
2023-05-08T02:03:40.001Z,4.00
2023-05-08T02:05:43.057Z,4.05
2023-05-08T02:07:47.674Z,3.58
2023-05-08T02:09:53.895Z,3.50
2023-05-08T02:11:56.191Z,3.85
2023-05-08T02:14:01.652Z,3.83
2023-05-08T02:16:05.264Z,4.40
2023-05-08T02:18:09.506Z,3.40
2023-05-08T02:20:15.134Z,3.72
2023-05-08T02:22:19.727Z,3.78
2023-05-08T02:24:22.790Z,3.60
2023-05-08T02:26:26.382Z,3.60
2023-05-08T02:28:30.300Z,3.72
2023-05-08T02:30:34.291Z,3.58
2023-05-08T02:32:36.022Z,3.58
2023-05-08T02:34:41.043Z,3.30
2023-05-08T02:36:49.220Z,3.80
2023-05-08T02:38:54.225Z,4.50
2023-05-08T02:41:02.156Z,3.92
2023-05-08T02:43:05.140Z,3.35
2023-05-08T02:45:08.191Z,3.38
2023-05-08T02:47:26.196Z,3.50
2023-05-08T02:49:33.295Z,3.70
2023-05-08T02:51:38.584Z,3.95
2023-05-08T02:53:52.836Z,3.55
2023-05-08T02:56:03.200Z,3.97
2023-05-08T02:58:30.691Z,3.85
2023-05-08T03:00:44.111Z,3.70
2023-05-08T03:03:00.620Z,3.53
2023-05-08T03:05:15.964Z,3.97
2023-05-08T03:07:21.869Z,3.95
2023-05-08T03:09:26.994Z,3.97
2023-05-08T03:11:36.887Z,3.72
2023-05-08T03:13:41.699Z,3.95
2023-05-08T03:15:55.458Z,3.30
2023-05-08T03:18:04.007Z,4.82
2023-05-08T03:20:10.405Z,3.55
2023-05-08T03:22:15.569Z,3.78
2023-05-08T03:24:19.917Z,4.95
2023-05-08T03:26:22.599Z,3.83
2023-05-08T03:28:26.269Z,3.92
2023-05-08T03:30:31.391Z,3.47
2023-05-08T03:32:39.400Z,3.47
2023-05-08T03:34:44.292Z,4.10
2023-05-08T03:36:46.466Z,4.05
2023-05-08T03:38:49.153Z,3.55
2023-05-08T03:40:50.955Z,3.90
2023-05-08T03:42:53.179Z,3.50
2023-05-08T03:44:55.193Z,4.18
2023-05-08T03:46:59.456Z,3.72
2023-05-08T03:49:04.706Z,3.95
2023-05-08T03:51:07.172Z,3.80
2023-05-08T03:53:11.626Z,4.18
2023-05-08T03:55:13.607Z,3.80
2023-05-08T03:57:15.315Z,4.20
2023-05-08T03:59:29.348Z,3.28
2023-05-08T04:01:48.732Z,4.00
2023-05-08T04:04:06.146Z,3.67
2023-05-08T04:06:16.158Z,4.32
2023-05-08T04:08:28.245Z,3.85
2023-05-08T04:10:42.294Z,5.90
2023-05-08T04:13:12.185Z,4.00
2023-05-08T04:15:22.617Z,3.70
2023-05-08T04:17:43.677Z,4.07
2023-05-08T04:19:50.556Z,4.10
2023-05-08T04:21:59.427Z,3.60
2023-05-08T04:24:04.534Z,5.05
2023-05-08T04:26:07.694Z,4.10
2023-05-08T04:28:11.351Z,3.88
2023-05-08T04:30:14.852Z,4.00
2023-05-08T04:32:17.153Z,3.55
2023-05-08T04:34:19.154Z,4.50
2023-05-08T04:36:21.072Z,5.85
2023-05-08T04:38:22.670Z,5.13
2023-05-08T04:40:25.196Z,4.10
2023-05-08T04:42:27.432Z,5.00
2023-05-08T04:44:32.289Z,3.80
2023-05-08T04:46:33.969Z,5.30
2023-05-08T04:48:35.685Z,4.53
2023-05-08T04:50:38.465Z,4.85
2023-05-08T04:52:40.701Z,5.10
2023-05-08T04:54:42.265Z,4.80
2023-05-08T04:56:44.474Z,4.65
2023-05-08T04:58:52.313Z,4.93
2023-05-08T05:00:56.316Z,4.45
2023-05-08T05:02:58.143Z,4.45
2023-05-08T05:05:01.285Z,6.03
2023-05-08T05:07:04.373Z,4.28
2023-05-08T05:09:08.971Z,4.30
2023-05-08T05:11:10.749Z,4.35
2023-05-08T05:13:12.600Z,4.72
2023-05-08T05:15:14.632Z,4.97
2023-05-08T05:17:17.977Z,4.82
2023-05-08T05:19:19.876Z,4.57
2023-05-08T05:21:21.614Z,4.45
2023-05-08T05:23:23.862Z,4.28
2023-05-08T05:25:25.641Z,5.63
2023-05-08T05:27:28.926Z,4.72
2023-05-08T05:29:30.885Z,4.57
2023-05-08T05:31:32.647Z,5.13
2023-05-08T05:33:34.934Z,4.10
2023-05-08T05:35:36.522Z,5.28
2023-05-08T05:37:38.186Z,10.57
2023-05-08T05:39:40.099Z,16.20
2023-05-08T05:41:44.188Z,13.80
2023-05-08T05:43:46.059Z,10.48
2023-05-08T05:45:48.131Z,8.82
2023-05-08T05:47:50.876Z,7.35
2023-05-08T05:49:57.635Z,6.88
2023-05-08T05:51:59.108Z,6.68
2023-05-08T05:54:00.635Z,7.25
2023-05-08T05:56:02.416Z,6.32
2023-05-08T05:58:05.310Z,5.63
2023-05-08T06:00:09.143Z,5.15
2023-05-08T06:02:20.545Z,5.75
2023-05-08T06:04:22.418Z,4.43
2023-05-08T06:06:26.804Z,5.47
2023-05-08T06:08:28.763Z,4.60
2023-05-08T06:10:31.122Z,5.15
2023-05-08T06:12:32.912Z,4.45
2023-05-08T06:14:35.243Z,7.07
2023-05-08T06:16:36.946Z,5.13
2023-05-08T06:18:38.463Z,13.40
2023-05-08T06:20:40.094Z,17.17
2023-05-08T06:22:41.822Z,13.52
2023-05-08T06:24:52.906Z,11.57
2023-05-08T06:26:54.604Z,9.20
2023-05-08T06:28:57.030Z,9.40
2023-05-08T06:30:58.796Z,7.95
2023-05-08T06:33:00.320Z,7.50
2023-05-08T06:35:01.759Z,9.25
2023-05-08T06:37:03.149Z,6.43
2023-05-08T06:39:06.134Z,6.65
2023-05-08T06:41:07.601Z,6.03
2023-05-08T06:43:09.141Z,6.00
2023-05-08T06:45:11.168Z,5.22
2023-05-08T06:47:12.881Z,4.60
2023-05-08T06:49:14.549Z,4.90
2023-05-08T06:51:16.239Z,4.70
2023-05-08T06:53:18.250Z,4.20
2023-05-08T06:55:22.405Z,4.78
2023-05-08T06:57:26.889Z,4.25
2023-05-08T06:59:29.296Z,4.10
2023-05-08T07:01:30.773Z,4.00
2023-05-08T07:03:32.883Z,4.53
2023-05-08T07:05:34.353Z,3.92
2023-05-08T07:07:38.288Z,4.63
2023-05-08T07:09:40.390Z,4.10
2023-05-08T07:11:42.379Z,4.60
2023-05-08T07:13:48.819Z,4.68
2023-05-08T07:15:50.474Z,4.70
2023-05-08T07:17:56.968Z,4.05
2023-05-08T07:19:58.638Z,4.88
2023-05-08T07:22:00.882Z,4.43
2023-05-08T07:24:02.600Z,4.70
2023-05-08T07:26:08.141Z,4.20
2023-05-08T07:28:09.650Z,4.82
2023-05-08T07:30:11.434Z,4.60
2023-05-08T07:32:12.918Z,5.35
2023-05-08T07:34:15.133Z,4.70
2023-05-08T07:36:16.732Z,4.45
2023-05-08T07:38:18.295Z,4.22
2023-05-08T07:40:19.758Z,4.97
2023-05-08T07:42:21.721Z,4.45
2023-05-08T07:44:23.482Z,4.70
2023-05-08T07:46:25.453Z,4.75
2023-05-08T07:48:27.419Z,4.78
2023-05-08T07:50:29.254Z,5.05
2023-05-08T07:52:30.750Z,4.03
2023-05-08T07:54:32.151Z,4.28
2023-05-08T07:56:33.820Z,4.20
2023-05-08T07:58:38.401Z,4.55
2023-05-08T08:00:40.785Z,4.10
2023-05-08T08:02:46.537Z,4.75
2023-05-08T08:04:48.785Z,4.40
2023-05-08T08:06:50.630Z,4.20
2023-05-08T08:08:52.082Z,5.38
2023-05-08T08:10:55.976Z,4.15
2023-05-08T08:12:57.443Z,4.30
2023-05-08T08:14:59.071Z,4.57
2023-05-08T08:17:03.454Z,4.68
2023-05-08T08:19:07.616Z,4.63
2023-05-08T08:21:09.152Z,4.10
2023-05-08T08:23:10.751Z,5.90
2023-05-08T08:25:12.575Z,4.30
2023-05-08T08:27:14.600Z,4.40
2023-05-08T08:29:16.139Z,4.85
2023-05-08T08:31:19.704Z,4.35
2023-05-08T08:33:21.539Z,4.50
2023-05-08T08:35:29.357Z,4.68
2023-05-08T08:37:30.874Z,4.47
2023-05-08T08:39:34.262Z,6.03
2023-05-08T08:41:36.088Z,4.72
2023-05-08T08:43:43.136Z,4.43
2023-05-08T08:45:44.627Z,4.38
2023-05-08T08:47:48.420Z,5.57
2023-05-08T08:49:51.652Z,4.13
2023-05-08T08:51:58.677Z,4.95
2023-05-08T08:54:12.383Z,4.30
2023-05-08T08:56:15.757Z,4.28
2023-05-08T08:58:21.187Z,4.43
2023-05-08T09:00:25.001Z,4.13
2023-05-08T09:02:28.896Z,4.38
2023-05-08T09:04:31.753Z,4.55
2023-05-08T09:06:36.452Z,4.18
2023-05-08T09:08:38.900Z,4.50
2023-05-08T09:10:41.230Z,4.45
2023-05-08T09:12:46.057Z,5.25
2023-05-08T09:14:48.029Z,4.90
2023-05-08T09:16:55.497Z,3.90
2023-05-08T09:18:57.054Z,5.32
2023-05-08T09:21:01.370Z,4.65
2023-05-08T09:23:03.578Z,4.38
2023-05-08T09:25:06.493Z,4.95
2023-05-08T09:27:21.407Z,4.40
2023-05-08T09:29:26.802Z,4.57
2023-05-08T09:31:40.007Z,4.47
2023-05-08T09:33:44.633Z,4.50
2023-05-08T09:35:48.573Z,5.47
2023-05-08T09:37:50.237Z,4.22
2023-05-08T09:39:51.973Z,4.53
2023-05-08T09:41:58.914Z,4.25
2023-05-08T09:44:08.476Z,6.82
2023-05-08T09:46:28.253Z,3.70
2023-05-08T09:48:39.379Z,4.35
2023-05-08T09:50:42.960Z,4.40
2023-05-08T09:52:50.489Z,4.03
2023-05-08T09:55:05.325Z,5.05
2023-05-08T09:57:13.816Z,5.75
2023-05-08T09:59:34.167Z,3.83
2023-05-08T10:01:37.059Z,4.32
2023-05-08T10:03:51.553Z,4.30
2023-05-08T10:05:53.374Z,4.53
2023-05-08T10:07:54.946Z,4.57
2023-05-08T10:10:01.599Z,4.03
2023-05-08T10:12:03.640Z,4.10
2023-05-08T10:14:05.339Z,4.57
2023-05-08T10:16:08.024Z,4.82
2023-05-08T10:18:12.013Z,4.50
2023-05-08T10:20:14.756Z,4.50
2023-05-08T10:22:20.804Z,4.32
2023-05-08T10:24:33.268Z,4.13
2023-05-08T10:26:40.897Z,4.57
2023-05-08T10:28:57.117Z,4.32
2023-05-08T10:31:03.780Z,4.50
2023-05-08T10:33:09.936Z,4.43
2023-05-08T10:35:12.376Z,4.10
2023-05-08T10:37:14.322Z,4.47
2023-05-08T10:39:19.344Z,5.28
2023-05-08T10:41:22.234Z,4.25
2023-05-08T10:43:25.947Z,4.05
2023-05-08T10:45:29.920Z,5.45
2023-05-08T10:47:53.319Z,4.70
2023-05-08T10:50:34.056Z,4.20
2023-05-08T10:52:54.834Z,4.13
2023-05-08T10:55:02.272Z,6.28
2023-05-08T10:57:12.939Z,4.30
2023-05-08T10:59:21.057Z,4.28
2023-05-08T11:01:24.821Z,4.45
2023-05-08T11:03:32.822Z,4.25
2023-05-08T11:05:48.500Z,4.20
2023-05-08T11:07:56.935Z,4.53
2023-05-08T11:10:13.689Z,6.80
2023-05-08T11:12:27.824Z,4.00
2023-05-08T11:14:31.629Z,4.22
2023-05-08T11:16:59.695Z,4.40
2023-05-08T11:19:17.687Z,4.40
2023-05-08T11:21:24.188Z,4.53
2023-05-08T11:23:27.301Z,4.18
2023-05-08T11:25:45.549Z,4.82
2023-05-08T11:27:47.157Z,4.53
2023-05-08T11:30:18.251Z,4.70
2023-05-08T11:32:20.422Z,4.40
2023-05-08T11:34:54.140Z,4.03
2023-05-08T11:37:02.319Z,4.85
2023-05-08T11:39:17.129Z,6.07
2023-05-08T11:41:25.702Z,4.70
2023-05-08T11:43:33.414Z,4.30
2023-05-08T11:45:41.278Z,4.72
2023-05-08T11:47:47.502Z,4.82
2023-05-08T11:49:49.016Z,4.30
2023-05-08T11:51:55.424Z,4.60
2023-05-08T11:53:57.636Z,4.70
2023-05-08T11:56:00.641Z,5.00
2023-05-08T11:58:05.007Z,4.85
2023-05-08T12:00:14.128Z,4.28
2023-05-08T12:02:15.965Z,4.70
2023-05-08T12:04:17.902Z,5.03
2023-05-08T12:06:23.853Z,5.10
2023-05-08T12:08:26.214Z,4.47
2023-05-08T12:10:27.866Z,4.82
2023-05-08T12:12:38.197Z,4.70
2023-05-08T12:14:42.966Z,10.15
2023-05-08T12:16:44.448Z,7.07
2023-05-08T12:18:45.941Z,7.07
2023-05-08T12:20:58.153Z,5.00
2023-05-08T12:23:02.711Z,5.20
2023-05-08T12:25:06.651Z,5.25
2023-05-08T12:27:13.024Z,4.38
2023-05-08T12:29:19.622Z,5.13
2023-05-08T12:31:21.567Z,5.00
2023-05-08T12:33:23.780Z,5.13
2023-05-08T12:35:25.880Z,4.68
2023-05-08T12:37:27.591Z,17.08
2023-05-08T12:39:29.376Z,63.90
2023-05-08T12:41:30.901Z,73.22
2023-05-08T12:43:36.047Z,61.40
2023-05-08T12:45:42.214Z,39.08
2023-05-08T12:47:49.640Z,34.05
2023-05-08T12:49:51.923Z,26.05
2023-05-08T12:52:04.232Z,27.50
2023-05-08T12:54:06.038Z,21.87
2023-05-08T12:56:07.658Z,13.45
2023-05-08T12:58:15.870Z,10.13
2023-05-08T13:00:18.660Z,9.75
2023-05-08T13:02:23.671Z,6.63
2023-05-08T13:04:25.569Z,5.95
2023-05-08T13:06:27.303Z,5.50
2023-05-08T13:08:39.053Z,5.15
2023-05-08T13:10:48.043Z,4.85
2023-05-08T13:12:49.611Z,7.50
2023-05-08T13:14:51.216Z,5.60
2023-05-08T13:16:53.209Z,7.90
2023-05-08T13:18:54.890Z,5.60
2023-05-08T13:20:59.576Z,5.13
2023-05-08T13:23:07.596Z,4.95
2023-05-08T13:25:09.310Z,4.90
2023-05-08T13:27:10.773Z,4.65
2023-05-08T13:29:12.323Z,4.53
2023-05-08T13:31:14.090Z,5.55
2023-05-08T13:33:15.664Z,4.68
2023-05-08T13:35:21.781Z,4.10
2023-05-08T13:37:23.383Z,4.28
2023-05-08T13:39:24.982Z,4.75
2023-05-08T13:41:26.685Z,6.03
2023-05-08T13:43:28.425Z,4.30
2023-05-08T13:45:30.476Z,4.00
2023-05-08T13:47:34.830Z,4.60
2023-05-08T13:49:36.485Z,5.18
2023-05-08T13:51:38.085Z,4.80
2023-05-08T13:53:39.825Z,4.75
2023-05-08T13:55:42.253Z,5.05
2023-05-08T13:57:46.542Z,5.15
2023-05-08T13:59:48.358Z,5.05
2023-05-08T14:01:50.087Z,4.57
2023-05-08T14:03:51.804Z,5.30
2023-05-08T14:05:53.530Z,4.93
2023-05-08T14:07:55.385Z,5.00
2023-05-08T14:09:57.199Z,5.47
2023-05-08T14:11:58.954Z,5.28
2023-05-08T14:14:00.602Z,5.28
2023-05-08T14:16:04.880Z,5.00
2023-05-08T14:18:06.925Z,5.15
2023-05-08T14:20:11.586Z,6.22
2023-05-08T14:22:13.415Z,5.78
2023-05-08T14:24:14.922Z,5.18
2023-05-08T14:26:16.650Z,5.28
2023-05-08T14:28:18.306Z,5.47
2023-05-08T14:30:19.838Z,5.32
2023-05-08T14:32:21.660Z,5.50
2023-05-08T14:34:23.398Z,5.10
2023-05-08T14:36:24.864Z,5.05
2023-05-08T14:38:26.370Z,4.97
2023-05-08T14:40:27.862Z,5.07
2023-05-08T14:42:33.522Z,22.88
2023-05-08T14:44:41.245Z,95.00
2023-05-08T14:46:42.894Z,42.08
2023-05-08T14:48:44.596Z,38.55
2023-05-08T14:50:46.036Z,25.65
2023-05-08T14:52:47.629Z,13.75
2023-05-08T14:54:53.031Z,8.98
2023-05-08T14:56:55.023Z,6.70
2023-05-08T14:58:56.519Z,6.97
2023-05-08T15:00:58.140Z,6.47
2023-05-08T15:02:59.804Z,5.57
2023-05-08T15:05:01.531Z,6.80
2023-05-08T15:07:05.459Z,6.45
2023-05-08T15:09:09.947Z,4.85
2023-05-08T15:11:11.477Z,4.13
2023-05-08T15:13:20.199Z,4.95
2023-05-08T15:15:22.070Z,4.78
2023-05-08T15:17:23.796Z,5.15
2023-05-08T15:19:25.386Z,4.78
2023-05-08T15:21:27.607Z,5.07
2023-05-08T15:23:29.128Z,4.50
2023-05-08T15:25:30.765Z,4.57
2023-05-08T15:27:32.785Z,4.82
2023-05-08T15:29:38.714Z,4.43
2023-05-08T15:31:40.266Z,4.93
2023-05-08T15:33:45.891Z,4.90
2023-05-08T15:35:47.438Z,4.50
2023-05-08T15:37:51.231Z,4.68
2023-05-08T15:39:52.726Z,4.45
2023-05-08T15:41:54.325Z,4.72
2023-05-08T15:44:04.989Z,4.95
2023-05-08T15:46:06.474Z,4.20
2023-05-08T15:48:08.080Z,4.57
2023-05-08T15:50:09.930Z,4.75
2023-05-08T15:52:18.635Z,4.65
2023-05-08T15:54:20.656Z,4.82
2023-05-08T15:56:31.288Z,4.72
2023-05-08T15:58:34.680Z,4.95
2023-05-08T16:00:43.898Z,4.90
2023-05-08T16:02:47.674Z,5.38
2023-05-08T16:04:49.489Z,4.40
2023-05-08T16:06:53.899Z,4.22
2023-05-08T16:08:55.502Z,4.85
2023-05-08T16:10:56.969Z,4.53
2023-05-08T16:13:00.451Z,4.80
2023-05-08T16:15:04.915Z,4.28
2023-05-08T16:17:10.347Z,4.50
2023-05-08T16:19:15.803Z,4.07
2023-05-08T16:21:17.621Z,4.32
2023-05-08T16:23:22.314Z,4.45
2023-05-08T16:25:27.782Z,4.78
2023-05-08T16:27:32.431Z,5.40
2023-05-08T16:29:35.255Z,5.03
2023-05-08T16:31:36.984Z,5.57
2023-05-08T16:33:38.674Z,4.70
2023-05-08T16:35:42.945Z,4.43
2023-05-08T16:37:47.491Z,4.68
2023-05-08T16:39:48.936Z,6.68
2023-05-08T16:41:50.378Z,13.27
2023-05-08T16:43:52.115Z,8.73
2023-05-08T16:45:53.695Z,11.27
2023-05-08T16:47:57.987Z,7.15
2023-05-08T16:49:59.974Z,5.25
2023-05-08T16:52:04.394Z,4.55
2023-05-08T16:54:06.360Z,4.07
2023-05-08T16:56:10.599Z,3.85
2023-05-08T16:58:12.127Z,3.35
2023-05-08T17:00:14.211Z,3.67
2023-05-08T17:02:18.922Z,6.03
2023-05-08T17:04:20.718Z,3.67
2023-05-08T17:06:24.124Z,3.40
2023-05-08T17:08:25.567Z,3.40
2023-05-08T17:10:27.361Z,4.28
2023-05-08T17:12:31.901Z,3.40
2023-05-08T17:14:33.692Z,4.22
2023-05-08T17:16:35.285Z,2.88
2023-05-08T17:18:36.837Z,5.03
2023-05-08T17:20:42.249Z,3.58
2023-05-08T17:22:47.654Z,4.25
2023-05-08T17:24:49.132Z,3.63
2023-05-08T17:26:50.639Z,3.15
2023-05-08T17:28:52.169Z,3.25
2023-05-08T17:30:56.854Z,2.85
2023-05-08T17:32:58.439Z,3.72
2023-05-08T17:34:59.907Z,3.03
2023-05-08T17:37:01.491Z,3.17
2023-05-08T17:39:03.015Z,3.20
2023-05-08T17:41:04.469Z,3.20
2023-05-08T17:43:09.271Z,3.67
2023-05-08T17:45:11.133Z,5.13
2023-05-08T17:47:15.557Z,7.47
2023-05-08T17:49:19.275Z,6.47
2023-05-08T17:51:21.131Z,5.93
2023-05-08T17:53:22.751Z,5.55
2023-05-08T17:55:27.342Z,5.10
2023-05-08T17:57:28.746Z,5.00
2023-05-08T17:59:30.428Z,4.47
2023-05-08T18:01:32.095Z,3.75
2023-05-08T18:03:33.749Z,4.20
2023-05-08T18:05:35.232Z,4.90
2023-05-08T18:07:36.836Z,5.28
2023-05-08T18:09:38.236Z,3.50
2023-05-08T18:11:41.669Z,5.88
2023-05-08T18:13:43.533Z,4.03
2023-05-08T18:15:47.802Z,4.20
2023-05-08T18:17:49.355Z,4.20
2023-05-08T18:19:51.020Z,4.13
2023-05-08T18:21:52.726Z,3.72
2023-05-08T18:23:54.517Z,5.20
2023-05-08T18:25:57.763Z,3.60
2023-05-08T18:28:00.474Z,4.05
2023-05-08T18:30:02.019Z,3.60
2023-05-08T18:32:06.235Z,4.22
2023-05-08T18:34:07.893Z,3.60
2023-05-08T18:36:09.424Z,3.95
2023-05-08T18:38:10.981Z,3.47
2023-05-08T18:40:13.048Z,3.70
2023-05-08T18:42:14.813Z,4.70
2023-05-08T18:44:18.481Z,4.38
2023-05-08T18:46:28.885Z,3.88
2023-05-08T18:48:30.584Z,3.78
2023-05-08T18:50:32.106Z,3.65
2023-05-08T18:52:34.183Z,3.83
2023-05-08T18:54:35.729Z,3.63
2023-05-08T18:56:39.418Z,4.13
2023-05-08T18:58:41.119Z,4.28
2023-05-08T19:00:42.645Z,4.10
2023-05-08T19:02:44.210Z,3.63
2023-05-08T19:04:46.252Z,4.35
2023-05-08T19:06:49.007Z,3.65
2023-05-08T19:08:56.320Z,3.72
2023-05-08T19:10:57.874Z,3.67
2023-05-08T19:13:02.239Z,3.70
2023-05-08T19:15:03.996Z,3.63
2023-05-08T19:17:05.529Z,3.42
2023-05-08T19:19:07.062Z,3.65
2023-05-08T19:21:08.586Z,3.22
2023-05-08T19:23:10.231Z,3.65
2023-05-08T19:25:12.602Z,3.20
2023-05-08T19:27:14.070Z,3.50
2023-05-08T19:29:15.808Z,3.70
2023-05-08T19:31:17.383Z,3.60
2023-05-08T19:33:23.323Z,3.45
2023-05-08T19:35:27.353Z,3.13
2023-05-08T19:37:29.320Z,3.35
2023-05-08T19:39:32.575Z,3.75
2023-05-08T19:41:34.317Z,3.90
2023-05-08T19:43:39.567Z,3.58
2023-05-08T19:45:41.031Z,3.83
2023-05-08T19:47:51.808Z,3.90
2023-05-08T19:49:54.181Z,3.40
2023-05-08T19:51:55.679Z,4.07
2023-05-08T19:53:59.739Z,3.70
2023-05-08T19:56:01.824Z,3.33
2023-05-08T19:58:03.329Z,3.55
2023-05-08T20:00:06.274Z,3.35
2023-05-08T20:02:07.938Z,3.55
2023-05-08T20:04:09.803Z,3.42
2023-05-08T20:06:11.435Z,3.80
2023-05-08T20:08:14.536Z,3.42
2023-05-08T20:10:18.820Z,3.72
2023-05-08T20:12:22.809Z,3.65
2023-05-08T20:14:27.028Z,3.50
2023-05-08T20:16:28.544Z,3.65
2023-05-08T20:18:30.063Z,3.70
2023-05-08T20:20:32.031Z,3.42
2023-05-08T20:22:33.537Z,3.85
2023-05-08T20:24:41.155Z,3.53
2023-05-08T20:26:47.125Z,3.40
2023-05-08T20:28:52.019Z,3.35
2023-05-08T20:30:53.818Z,4.20
2023-05-08T20:32:55.332Z,4.38
2023-05-08T20:34:56.888Z,3.33
2023-05-08T20:36:59.199Z,3.67
2023-05-08T20:39:00.782Z,3.20
2023-05-08T20:41:05.425Z,3.45
2023-05-08T20:43:12.365Z,3.42
2023-05-08T20:45:14.078Z,3.28
2023-05-08T20:47:15.709Z,3.35
2023-05-08T20:49:17.320Z,3.70
2023-05-08T20:51:18.747Z,3.38
2023-05-08T20:53:20.295Z,3.33
2023-05-08T20:55:21.968Z,3.22
2023-05-08T20:57:23.786Z,3.55
2023-05-08T20:59:27.743Z,4.20
2023-05-08T21:01:29.392Z,3.28
2023-05-08T21:03:39.700Z,3.70
2023-05-08T21:05:41.201Z,3.38
2023-05-08T21:07:43.038Z,3.33
2023-05-08T21:09:44.692Z,3.67
2023-05-08T21:11:46.241Z,3.78
2023-05-08T21:13:47.938Z,3.45
2023-05-08T21:15:52.822Z,3.33
2023-05-08T21:17:54.631Z,3.65
2023-05-08T21:19:58.226Z,3.47
2023-05-08T21:22:19.515Z,3.25
2023-05-08T21:24:23.824Z,3.60
2023-05-08T21:26:28.062Z,3.78
2023-05-08T21:28:29.797Z,3.97
2023-05-08T21:30:31.332Z,3.63
2023-05-08T21:32:33.019Z,4.20
2023-05-08T21:34:35.084Z,3.45
2023-05-08T21:36:36.629Z,4.00
2023-05-08T21:38:38.050Z,4.55
2023-05-08T21:40:39.676Z,4.07
2023-05-08T21:42:49.664Z,3.60
2023-05-08T21:44:54.580Z,3.58
2023-05-08T21:46:56.188Z,3.72
2023-05-08T21:48:57.677Z,3.70
2023-05-08T21:51:02.458Z,4.20
2023-05-08T21:53:04.326Z,3.55
2023-05-08T21:55:08.572Z,4.05
2023-05-08T21:57:10.132Z,3.35
2023-05-08T21:59:11.584Z,3.40
2023-05-08T22:01:13.364Z,3.25
2023-05-08T22:03:17.921Z,3.33
2023-05-08T22:05:19.629Z,3.13
2023-05-08T22:07:21.496Z,3.70
2023-05-08T22:09:23.030Z,3.25
2023-05-08T22:11:25.079Z,3.20
2023-05-08T22:13:26.594Z,3.35
2023-05-08T22:15:30.601Z,3.28
2023-05-08T22:17:32.702Z,2.90
2023-05-08T22:19:37.185Z,3.35
2023-05-08T22:21:38.713Z,3.28
2023-05-08T22:23:40.281Z,3.17
2023-05-08T22:25:43.588Z,2.90
2023-05-08T22:27:45.387Z,3.78
2023-05-08T22:29:46.873Z,3.40
2023-05-08T22:31:48.398Z,3.03
2023-05-08T22:33:50.001Z,3.72
2023-05-08T22:35:51.465Z,3.47
2023-05-08T22:37:59.231Z,3.42
2023-05-08T22:40:00.732Z,3.60
2023-05-08T22:42:05.261Z,4.07
2023-05-08T22:44:07.552Z,3.55
2023-05-08T22:46:09.165Z,3.35
2023-05-08T22:48:11.101Z,3.13
2023-05-08T22:50:12.614Z,3.40
2023-05-08T22:52:14.152Z,3.38
2023-05-08T22:54:15.797Z,3.90
2023-05-08T22:56:21.065Z,3.38
2023-05-08T22:58:24.973Z,3.28
2023-05-08T23:00:26.584Z,3.63
2023-05-08T23:02:32.931Z,3.28
2023-05-08T23:04:34.447Z,3.50
2023-05-08T23:06:36.526Z,3.42
2023-05-08T23:08:38.212Z,3.17
2023-05-08T23:10:40.315Z,4.28
2023-05-08T23:12:43.793Z,3.28
2023-05-08T23:14:45.583Z,3.58
2023-05-08T23:16:47.152Z,3.30
2023-05-08T23:18:48.857Z,3.20
2023-05-08T23:20:50.330Z,4.25
2023-05-08T23:22:51.736Z,3.85
2023-05-08T23:24:53.254Z,3.20
2023-05-08T23:26:54.809Z,3.83
2023-05-08T23:28:56.283Z,3.50
2023-05-08T23:30:58.019Z,3.30
2023-05-08T23:33:01.916Z,2.95
2023-05-08T23:35:11.163Z,3.40
2023-05-08T23:37:12.704Z,3.28
2023-05-08T23:39:14.270Z,3.10
2023-05-08T23:41:15.692Z,3.30
2023-05-08T23:43:17.544Z,3.20
2023-05-08T23:45:19.078Z,3.20
2023-05-08T23:47:22.367Z,3.08
2023-05-08T23:49:23.849Z,3.60
2023-05-08T23:51:25.414Z,3.22
2023-05-08T23:53:26.851Z,3.58
2023-05-08T23:55:31.184Z,3.20
2023-05-08T23:57:42.904Z,2.85
2023-05-08T23:59:44.372Z,3.10
